KQEN

Daegwallyeong Rw

Daegwallyeong Rw, South Korea
METAR KQEN 220720Z AUTO 24013G20KT 9999 CLR 18/09 A2998 RMK A02 TSNO
Observed Flight Rules
Sep-22 @ 07:20 UTC (10 minutes ago) Visual Flight Rules
Wind Visibility Clouds
240° at 13 knots
 Gusting to 20 knots
10,000+ meters
Temperatures Readings
Current 18°C / 64°F
Dewpoint 9°C / 48°F
Humidity 56%
Altimeter 29.98" Hg
Pressure 1015 hPa
METAR KQEN 220720Z AUTO 24013G20KT 9999 CLR 18/09 A2998 RMK A02 TSNO
Observed Flight Rules
Sep-22 @ 07:20 UTC
(10 minutes ago)
VFR
Wind Visibility
240° at 13 knots
 Gusting to 20 knots
10,000+ meters
Clouds
Temperature Dewpoint
18°C / 64°F 9°C / 48°F
Humidity Altimeter Pressure
56% 29.98" Hg 1015 hPa